Time;durP1;ratioP1;P1;durP2;ratioP2;P2;SDS_P1;SDS_P2;PMS_P1;PMS_P2;Temp;Humidity;BMP_temperature;BMP_pressure;BME280_temperature;BME280_humidity;BME280_pressure;Samples;Min_cycle;Max_cycle;Signal;HPM_P1;HPM_P2
2022/04/03 00:01:38;;;;;;;2.87;2.67;;;3.00;1.00;;;;;;5070867;28;20238;-69
2022/04/03 00:04:05;;;;;;;4.83;2.20;;;2.90;1.00;;;;;;5070830;28;20670;-69
2022/04/03 00:06:32;;;;;;;3.93;2.50;;;2.90;1.00;;;;;;5070199;28;20209;-69
2022/04/03 00:09:01;;;;;;;2.93;2.33;;;2.80;1.00;;;;;;5070760;28;20255;-69
2022/04/03 00:11:30;;;;;;;2.70;1.83;;;2.70;1.00;;;;;;5070335;28;20523;-69
2022/04/03 00:13:57;;;;;;;3.53;1.90;;;2.70;1.00;;;;;;5070237;28;20202;-69
2022/04/03 00:16:24;;;;;;;2.97;2.17;;;2.80;1.00;;;;;;5070076;28;20202;-70
2022/04/03 00:18:51;;;;;;;4.30;2.47;;;2.90;1.00;;;;;;5070345;28;20551;-69
2022/04/03 00:21:19;;;;;;;4.73;2.23;;;2.80;1.00;;;;;;5070259;28;20242;-69
2022/04/03 00:23:48;;;;;;;2.33;1.70;;;2.80;1.00;;;;;;5070616;28;20249;-69
2022/04/03 00:26:15;;;;;;;3.87;2.03;;;2.80;1.00;;;;;;5070203;28;20202;-70
2022/04/03 00:28:43;;;;;;;3.93;2.77;;;2.60;1.00;;;;;;5070260;28;20627;-71
2022/04/03 00:31:11;;;;;;;3.27;2.23;;;2.50;1.00;;;;;;5069982;28;20206;-71
2022/04/03 00:33:38;;;;;;;2.60;2.37;;;2.50;1.00;;;;;;5070568;28;20204;-71
2022/04/03 00:36:05;;;;;;;5.30;3.97;;;2.60;1.00;;;;;;5070805;28;20251;-72
2022/04/03 00:38:33;;;;;;;5.63;3.37;;;2.60;1.00;;;;;;5069885;28;20587;-71
2022/04/03 00:41:02;;;;;;;5.33;2.80;;;2.50;1.00;;;;;;5070161;28;20226;-71
2022/04/03 00:43:29;;;;;;;7.50;3.30;;;2.60;1.00;;;;;;5069714;28;20213;-71
2022/04/03 00:46:00;;;;;;;7.60;2.80;;;2.40;1.00;;;;;;5070152;28;20625;-71
2022/04/03 00:48:27;;;;;;;4.87;2.70;;;2.40;1.00;;;;;;5069923;28;20206;-72
2022/04/03 00:50:54;;;;;;;5.77;3.43;;;2.40;1.00;;;;;;5070412;28;20256;-71
2022/04/03 00:53:21;;;;;;;6.70;3.53;;;2.40;1.00;;;;;;5069777;28;20271;-72
2022/04/03 00:55:48;;;;;;;5.83;3.30;;;2.40;1.00;;;;;;5070462;28;20202;-71
2022/04/03 00:58:16;;;;;;;4.83;3.40;;;2.30;1.00;;;;;;5069411;28;20677;-70
2022/04/03 01:00:42;;;;;;;6.70;3.20;;;2.30;1.00;;;;;;5070012;28;20263;-70
2022/04/03 01:03:11;;;;;;;3.17;2.40;;;2.20;1.00;;;;;;5070298;28;20203;-70
2022/04/03 01:05:38;;;;;;;4.93;3.33;;;2.20;1.00;;;;;;5072256;28;20202;-70
2022/04/03 01:08:07;;;;;;;5.57;2.83;;;2.30;1.00;;;;;;5074072;28;20206;-70
2022/04/03 01:10:34;;;;;;;3.97;2.10;;;2.40;1.00;;;;;;5073516;28;20213;-71
2022/04/03 01:13:01;;;;;;;3.30;2.70;;;2.20;1.00;;;;;;5073227;28;20256;-69
2022/04/03 01:15:28;;;;;;;2.97;2.27;;;2.00;1.00;;;;;;5073141;28;20686;-70
2022/04/03 01:17:55;;;;;;;4.97;2.50;;;2.20;1.00;;;;;;5073457;28;20201;-70
2022/04/03 01:20:23;;;;;;;3.30;2.37;;;2.30;1.00;;;;;;5073060;28;20661;-70
2022/04/03 01:22:50;;;;;;;5.07;4.47;;;2.20;1.00;;;;;;5073335;28;20307;-70
2022/04/03 01:25:18;;;;;;;3.47;2.33;;;2.20;1.00;;;;;;5072802;28;20198;-71
2022/04/03 01:27:45;;;;;;;2.13;1.93;;;2.10;1.00;;;;;;5073234;28;20248;-70
2022/04/03 01:30:13;;;;;;;4.03;2.70;;;2.00;1.00;;;;;;5072643;28;20661;-70
2022/04/03 01:32:40;;;;;;;4.40;2.53;;;2.00;1.00;;;;;;5073625;28;20206;-70
2022/04/03 01:35:08;;;;;;;5.27;3.93;;;2.10;1.00;;;;;;5073444;28;20210;-70
2022/04/03 01:37:35;;;;;;;4.07;2.57;;;2.00;1.00;;;;;;5073260;28;20202;-70
2022/04/03 01:40:04;;;;;;;3.93;2.73;;;2.00;1.00;;;;;;5072857;28;20208;-70
2022/04/03 01:42:32;;;;;;;5.13;2.63;;;2.10;1.00;;;;;;5072496;28;20287;-70
2022/04/03 01:44:59;;;;;;;3.50;2.73;;;2.00;1.00;;;;;;5072981;28;20730;-70
2022/04/03 01:47:26;;;;;;;3.90;2.90;;;1.80;1.00;;;;;;5072543;28;20202;-70
2022/04/03 01:49:53;;;;;;;3.57;3.03;;;1.80;1.00;;;;;;5073040;28;20202;-70
2022/04/03 01:52:20;;;;;;;6.37;2.93;;;1.60;1.00;;;;;;5072528;28;20202;-70
2022/04/03 01:54:47;;;;;;;4.37;2.60;;;1.60;1.00;;;;;;5072526;28;20202;-70
2022/04/03 01:57:14;;;;;;;5.80;3.60;;;1.70;1.00;;;;;;5072570;28;20271;-70
2022/04/03 01:59:43;;;;;;;3.40;3.10;;;1.60;1.00;;;;;;5072923;28;20202;-70
2022/04/03 02:02:11;;;;;;;3.93;2.67;;;1.60;1.00;;;;;;5072408;28;20762;-70
2022/04/03 02:04:38;;;;;;;6.60;2.97;;;1.70;1.00;;;;;;5072613;28;20209;-70
2022/04/03 02:07:05;;;;;;;3.80;2.50;;;1.80;1.00;;;;;;5072801;28;20254;-70
2022/04/03 02:09:32;;;;;;;2.70;2.23;;;1.90;1.00;;;;;;5072270;28;20255;-70
2022/04/03 02:11:59;;;;;;;2.97;2.20;;;1.90;1.00;;;;;;5067590;28;20264;-70
2022/04/03 02:14:26;;;;;;;4.20;3.03;;;1.90;1.00;;;;;;5052146;28;20256;-70
2022/04/03 02:16:56;;;;;;;5.80;3.00;;;1.90;1.00;;;;;;5052150;28;20257;-69
2022/04/03 02:19:24;;;;;;;2.70;2.37;;;1.90;1.00;;;;;;5051886;28;20210;-70
2022/04/03 02:21:51;;;;;;;4.23;3.37;;;1.90;1.00;;;;;;5052086;28;20276;-69
2022/04/03 02:24:18;;;;;;;4.63;2.67;;;1.80;1.00;;;;;;5051586;28;20663;-70
2022/04/03 02:26:45;;;;;;;3.63;3.17;;;1.90;1.00;;;;;;5052299;28;20209;-70
2022/04/03 02:29:12;;;;;;;4.47;1.87;;;1.90;1.00;;;;;;5051520;28;20667;-70
2022/04/03 02:31:39;;;;;;;2.63;2.43;;;2.00;1.00;;;;;;5052139;28;20264;-70
2022/04/03 02:34:08;;;;;;;4.20;2.23;;;1.80;1.00;;;;;;5052724;28;20264;-69
2022/04/03 02:36:35;;;;;;;3.07;2.77;;;1.70;1.00;;;;;;5052427;28;20269;-71
2022/04/03 02:39:02;;;;;;;2.67;2.07;;;1.70;1.00;;;;;;5051974;28;20341;-71
2022/04/03 02:41:29;;;;;;;4.50;2.30;;;1.80;1.00;;;;;;5051397;28;20235;-70
2022/04/03 02:43:57;;;;;;;5.90;2.80;;;1.90;1.00;;;;;;5051816;28;20207;-70
2022/04/03 02:46:24;;;;;;;2.50;2.30;;;2.00;1.00;;;;;;5051345;28;20697;-70
2022/04/03 02:48:51;;;;;;;3.33;2.27;;;2.00;1.00;;;;;;5051713;28;20203;-71
2022/04/03 02:51:19;;;;;;;3.30;2.47;;;1.90;1.00;;;;;;5051518;28;20288;-71
2022/04/03 02:53:46;;;;;;;3.00;2.73;;;1.90;1.00;;;;;;5051319;28;20203;-71
2022/04/03 02:56:13;;;;;;;4.57;2.50;;;1.80;1.00;;;;;;5051298;28;20620;-70
2022/04/03 02:58:41;;;;;;;5.27;2.67;;;1.70;1.00;;;;;;5051482;28;20260;-71
2022/04/03 03:01:08;;;;;;;2.60;1.73;;;1.60;1.00;;;;;;5051576;28;20281;-70
2022/04/03 03:03:35;;;;;;;3.63;2.87;;;1.60;1.00;;;;;;5051712;28;20230;-70
2022/04/03 03:06:03;;;;;;;5.73;2.53;;;1.70;1.00;;;;;;5051468;28;20202;-70
2022/04/03 03:08:31;;;;;;;3.33;2.33;;;1.70;1.00;;;;;;5051006;28;20211;-71
2022/04/03 03:10:58;;;;;;;3.07;2.60;;;1.60;1.00;;;;;;5051435;28;20210;-71
2022/04/03 03:13:25;;;;;;;3.47;2.80;;;1.70;1.00;;;;;;5050971;28;20203;-71
2022/04/03 03:15:52;;;;;;;10.23;2.93;;;1.50;1.00;;;;;;5051262;28;20283;-71
2022/04/03 03:18:19;;;;;;;8.07;3.73;;;1.40;1.00;;;;;;5050814;28;20206;-71
2022/04/03 03:20:46;;;;;;;3.07;2.60;;;1.40;1.00;;;;;;5051352;28;20252;-71
2022/04/03 03:23:13;;;;;;;4.43;3.20;;;1.50;1.00;;;;;;5050631;28;20288;-71
2022/04/03 03:25:41;;;;;;;9.07;3.37;;;1.60;1.00;;;;;;5051244;28;20203;-71
2022/04/03 03:28:08;;;;;;;3.83;2.90;;;1.70;1.00;;;;;;5050737;28;20207;-70
2022/04/03 03:30:36;;;;;;;3.63;2.77;;;1.60;1.00;;;;;;5051254;28;20670;-70
2022/04/03 03:33:03;;;;;;;3.07;2.60;;;1.60;1.00;;;;;;5050933;28;20207;-69
2022/04/03 03:35:30;;;;;;;3.90;3.30;;;1.60;1.00;;;;;;5050528;28;20658;-69
2022/04/03 03:37:57;;;;;;;4.80;3.30;;;1.50;1.00;;;;;;5050764;28;20736;-70
2022/04/03 03:40:24;;;;;;;3.37;2.63;;;1.50;1.00;;;;;;5050522;28;20563;-69
2022/04/03 03:42:52;;;;;;;4.10;3.20;;;1.40;1.00;;;;;;5050804;28;20231;-70
2022/04/03 03:45:19;;;;;;;7.13;3.17;;;1.40;1.00;;;;;;5050444;28;20203;-71
2022/04/03 03:47:48;;;;;;;4.07;2.70;;;1.40;1.00;;;;;;5050705;28;20242;-67
2022/04/03 03:50:16;;;;;;;5.73;4.43;;;1.40;1.00;;;;;;5050356;28;20250;-70
2022/04/03 03:52:44;;;;;;;4.13;3.23;;;1.40;1.00;;;;;;5050553;28;20671;-70
2022/04/03 03:55:11;;;;;;;5.60;3.40;;;1.50;1.00;;;;;;5050348;28;20203;-70
2022/04/03 03:57:39;;;;;;;8.27;3.23;;;1.50;1.00;;;;;;5050777;28;20272;-70
2022/04/03 04:00:10;;;;;;;3.63;3.00;;;1.60;1.00;;;;;;5051146;28;20203;-70
2022/04/03 04:02:37;;;;;;;4.77;3.30;;;1.50;1.00;;;;;;5050947;28;20238;-70
2022/04/03 04:05:05;;;;;;;5.37;2.77;;;1.60;1.00;;;;;;5050702;28;20256;-71
2022/04/03 04:07:39;;;;;;;7.43;3.00;;;1.60;1.00;;;;;;5050154;28;20564;-70
2022/04/03 04:10:07;;;;;;;18.17;3.60;;;1.70;1.00;;;;;;5050817;28;20205;-71
2022/04/03 04:12:35;;;;;;;3.13;2.67;;;1.80;1.00;;;;;;5050336;28;20210;-70
2022/04/03 04:15:03;;;;;;;5.30;2.40;;;1.70;1.00;;;;;;5050722;28;20206;-70
2022/04/03 04:17:36;;;;;;;4.13;2.90;;;1.70;1.00;;;;;;5050202;28;20219;-70
2022/04/03 04:20:03;;;;;;;5.70;2.43;;;1.70;1.00;;;;;;5050249;28;20256;-69
2022/04/03 04:22:30;;;;;;;6.27;2.60;;;1.60;1.00;;;;;;5049887;28;20256;-70
2022/04/03 04:24:57;;;;;;;2.30;2.13;;;1.80;1.00;;;;;;5050380;28;20784;-70
2022/04/03 04:27:24;;;;;;;2.77;2.17;;;1.80;1.00;;;;;;5050070;28;20249;-70
2022/04/03 04:29:51;;;;;;;4.07;2.30;;;1.90;1.00;;;;;;5050298;28;20690;-71
2022/04/03 04:32:21;;;;;;;4.33;2.50;;;1.90;1.00;;;;;;5049943;28;20233;-71
2022/04/03 04:34:50;;;;;;;6.97;2.87;;;1.90;1.00;;;;;;5050149;28;20627;-70
2022/04/03 04:37:18;;;;;;;3.50;2.27;;;2.00;1.00;;;;;;5049835;28;20284;-71
2022/04/03 04:39:45;;;;;;;3.87;2.73;;;2.00;1.00;;;;;;5050998;28;20199;-71
2022/04/03 04:42:13;;;;;;;2.30;1.70;;;2.00;1.00;;;;;;5053714;28;20235;-70
2022/04/03 04:44:40;;;;;;;2.50;2.30;;;1.90;1.00;;;;;;5054262;28;20198;-70
2022/04/03 04:47:07;;;;;;;2.47;2.03;;;1.90;1.00;;;;;;5054512;28;20202;-71
2022/04/03 04:49:34;;;;;;;3.60;2.50;;;1.90;1.00;;;;;;5060282;28;20199;-70
2022/04/03 04:52:03;;;;;;;3.23;2.27;;;1.80;1.00;;;;;;5066988;28;20300;-71
2022/04/03 04:54:30;;;;;;;3.10;2.20;;;1.80;1.00;;;;;;5059801;28;20293;-70
2022/04/03 04:56:58;;;;;;;3.40;2.47;;;1.60;1.00;;;;;;5073141;28;20213;-70
2022/04/03 04:59:25;;;;;;;4.63;2.30;;;1.70;1.00;;;;;;5073119;28;20222;-71
2022/04/03 05:01:56;;;;;;;4.57;2.43;;;1.80;1.00;;;;;;5073295;28;20214;-71
2022/04/03 05:04:23;;;;;;;3.80;2.67;;;1.80;1.00;;;;;;5072791;28;20282;-71
2022/04/03 05:06:51;;;;;;;2.93;2.40;;;1.80;1.00;;;;;;5073597;28;20210;-71
2022/04/03 05:09:20;;;;;;;5.93;2.70;;;1.70;1.00;;;;;;5072928;28;20210;-71
2022/04/03 05:11:48;;;;;;;5.10;2.80;;;1.80;1.00;;;;;;5073456;28;20259;-72
2022/04/03 05:14:15;;;;;;;5.13;2.50;;;1.80;1.00;;;;;;5072970;28;20210;-71
2022/04/03 05:16:43;;;;;;;2.83;2.13;;;1.70;1.00;;;;;;5073350;28;20624;-71
2022/04/03 05:19:14;;;;;;;2.90;2.60;;;2.00;1.00;;;;;;5072610;28;20205;-70
2022/04/03 05:21:42;;;;;;;6.17;3.57;;;2.20;1.00;;;;;;5072991;28;20234;-71
2022/04/03 05:24:09;;;;;;;5.17;3.17;;;2.20;1.00;;;;;;5073089;28;20240;-71
2022/04/03 05:26:37;;;;;;;4.90;3.10;;;2.20;1.00;;;;;;5073268;28;20625;-71
2022/04/03 05:29:04;;;;;;;5.97;3.63;;;2.10;1.00;;;;;;5073018;28;20263;-70
2022/04/03 05:31:31;;;;;;;4.83;3.07;;;2.00;1.00;;;;;;5072654;28;20206;-70
2022/04/03 05:33:58;;;;;;;4.97;4.03;;;2.10;1.00;;;;;;5072768;28;20206;-70
2022/04/03 05:36:25;;;;;;;4.10;3.40;;;2.30;1.00;;;;;;5072538;28;20206;-70
2022/04/03 05:38:52;;;;;;;3.57;3.23;;;2.20;1.00;;;;;;5072873;28;20206;-70
2022/04/03 05:41:19;;;;;;;9.80;3.43;;;2.40;1.00;;;;;;5072589;28;20206;-70
2022/04/03 05:43:48;;;;;;;4.73;3.37;;;2.40;1.00;;;;;;5072433;28;20626;-69
2022/04/03 05:46:15;;;;;;;5.83;4.03;;;2.50;1.00;;;;;;5072178;28;20271;-69
2022/04/03 05:48:41;;;;;;;5.27;4.17;;;2.60;1.00;;;;;;5072737;28;20210;-71
2022/04/03 05:51:08;;;;;;;7.63;4.47;;;2.50;1.00;;;;;;5071888;28;20267;-71
2022/04/03 05:53:35;;;;;;;13.43;10.43;;;2.30;1.00;;;;;;5073040;28;20252;-70
2022/04/03 05:56:03;;;;;;;6.50;4.40;;;2.50;1.00;;;;;;5072519;28;20202;-70
2022/04/03 05:58:31;;;;;;;3.87;3.53;;;2.60;1.00;;;;;;5071897;28;20305;-70
2022/04/03 06:00:59;;;;;;;5.83;4.47;;;2.60;1.00;;;;;;5072274;28;20213;-70
2022/04/03 06:03:26;;;;;;;6.73;4.47;;;2.70;1.00;;;;;;5072175;28;20307;-71
2022/04/03 06:05:53;;;;;;;6.23;3.87;;;2.70;1.00;;;;;;5072464;28;20210;-70
2022/04/03 06:08:20;;;;;;;6.40;3.93;;;2.70;1.00;;;;;;5072086;28;20206;-69
2022/04/03 06:10:47;;;;;;;6.37;5.77;;;2.70;1.00;;;;;;5072229;28;20217;-68
2022/04/03 06:13:14;;;;;;;7.27;5.00;;;2.80;1.00;;;;;;5071965;28;20206;-69
2022/04/03 06:15:43;;;;;;;8.57;6.37;;;2.80;1.00;;;;;;5072036;28;20209;-69
2022/04/03 06:18:13;;;;;;;7.87;5.60;;;2.70;1.00;;;;;;5072039;28;20297;-70
2022/04/03 06:20:40;;;;;;;8.90;6.27;;;2.80;1.00;;;;;;5071992;28;20255;-69
2022/04/03 06:23:11;;;;;;;12.20;7.50;;;2.90;1.00;;;;;;5072371;28;20238;-70
2022/04/03 06:25:38;;;;;;;9.00;5.60;;;3.00;1.00;;;;;;5072255;28;20210;-69
2022/04/03 06:28:05;;;;;;;12.73;6.60;;;3.10;1.00;;;;;;5072427;28;20214;-69
2022/04/03 06:30:32;;;;;;;10.97;5.37;;;3.20;1.00;;;;;;5071449;28;20210;-70
2022/04/03 06:32:59;;;;;;;10.43;7.23;;;3.40;1.00;;;;;;5071946;28;20202;-73
2022/04/03 06:35:28;;;;;;;9.80;5.93;;;3.40;1.00;;;;;;5067401;28;20206;-71
2022/04/03 06:37:55;;;;;;;7.60;5.30;;;3.50;1.00;;;;;;5069969;28;20624;-72
2022/04/03 06:40:23;;;;;;;9.37;6.60;;;3.50;1.00;;;;;;5071445;28;20206;-72
2022/04/03 06:42:51;;;;;;;11.07;5.53;;;3.60;1.00;;;;;;5071556;28;20791;-74
2022/04/03 06:45:18;;;;;;;7.90;6.27;;;3.60;1.00;;;;;;5071356;28;20259;-74
2022/04/03 06:47:45;;;;;;;9.67;6.13;;;3.70;1.00;;;;;;5071599;28;20681;-74
2022/04/03 06:50:13;;;;;;;10.90;7.73;;;3.70;1.00;;;;;;5071338;28;20202;-74
2022/04/03 06:52:41;;;;;;;10.43;7.27;;;3.70;1.00;;;;;;5071634;28;20202;-72
2022/04/03 06:55:09;;;;;;;9.33;6.77;;;3.80;1.00;;;;;;5071513;28;20251;-72
2022/04/03 06:57:37;;;;;;;9.07;6.63;;;3.80;1.00;;;;;;5069824;28;20222;-73
2022/04/03 07:00:06;;;;;;;12.03;8.37;;;3.90;1.00;;;;;;5068792;28;20252;-73
2022/04/03 07:02:33;;;;;;;8.47;7.60;;;3.80;1.00;;;;;;5068203;28;20581;-73
2022/04/03 07:05:00;;;;;;;9.23;7.03;;;3.80;1.00;;;;;;5071134;28;20235;-72
2022/04/03 07:07:28;;;;;;;11.63;7.87;;;3.70;1.00;;;;;;5071065;28;20207;-74
2022/04/03 07:09:56;;;;;;;10.77;8.63;;;3.70;1.00;;;;;;5066851;28;20215;-73
2022/04/03 07:12:23;;;;;;;11.23;8.57;;;3.70;1.00;;;;;;5051128;28;20553;-73
2022/04/03 07:14:51;;;;;;;14.07;8.83;;;3.60;1.00;;;;;;5051098;28;20206;-73
2022/04/03 07:17:18;;;;;;;12.67;8.47;;;3.70;1.00;;;;;;5050890;28;20210;-73
2022/04/03 07:19:45;;;;;;;11.73;6.90;;;3.70;1.00;;;;;;5051319;28;20199;-75
2022/04/03 07:22:12;;;;;;;10.17;8.10;;;3.80;1.00;;;;;;5050777;28;20748;-74
2022/04/03 07:24:39;;;;;;;12.47;8.33;;;3.90;1.00;;;;;;5051006;28;20238;-74
2022/04/03 07:27:08;;;;;;;9.43;7.23;;;4.20;1.00;;;;;;5067211;28;20263;-73
2022/04/03 07:29:35;;;;;;;9.47;6.70;;;4.30;1.00;;;;;;5051145;28;20248;-73
2022/04/03 07:32:03;;;;;;;7.83;6.70;;;4.30;1.00;;;;;;5070775;28;20210;-73
2022/04/03 07:34:29;;;;;;;8.37;7.27;;;4.30;1.00;;;;;;5070625;28;20210;-71
2022/04/03 07:36:56;;;;;;;10.03;7.50;;;4.40;1.00;;;;;;5070702;28;20206;-73
2022/04/03 07:39:24;;;;;;;11.90;8.33;;;4.70;1.00;;;;;;5070660;28;20202;-73
2022/04/03 07:41:51;;;;;;;8.87;6.07;;;4.90;1.00;;;;;;5070174;28;20206;-73
2022/04/03 07:44:19;;;;;;;6.07;5.43;;;5.00;1.00;;;;;;5070090;28;20244;-73
2022/04/03 07:46:46;;;;;;;7.30;5.37;;;5.20;1.00;;;;;;5070553;28;20210;-73
2022/04/03 07:49:13;;;;;;;10.47;6.47;;;5.50;1.00;;;;;;5070688;28;20255;-73
2022/04/03 07:51:40;;;;;;;6.50;5.60;;;5.60;1.00;;;;;;5070909;28;20203;-72
2022/04/03 07:54:07;;;;;;;9.87;5.63;;;5.80;1.00;;;;;;5068648;28;20213;-73
2022/04/03 07:56:35;;;;;;;5.97;5.07;;;5.90;1.00;;;;;;5057784;28;20574;-73
2022/04/03 07:59:03;;;;;;;9.30;5.03;;;6.10;1.00;;;;;;5067817;28;20203;-73
2022/04/03 08:01:31;;;;;;;6.27;4.47;;;6.20;1.00;;;;;;5068521;28;20288;-72
2022/04/03 08:03:58;;;;;;;6.57;4.43;;;6.30;1.00;;;;;;5055140;28;20665;-72
2022/04/03 08:06:25;;;;;;;5.30;4.00;;;6.40;1.00;;;;;;5068463;28;20630;-73
2022/04/03 08:08:53;;;;;;;5.87;4.37;;;6.50;1.00;;;;;;5067374;28;20705;-73
2022/04/03 08:11:20;;;;;;;5.43;4.43;;;6.50;1.00;;;;;;5068576;28;20202;-72
2022/04/03 08:13:47;;;;;;;6.00;4.13;;;6.60;1.00;;;;;;5069829;28;20634;-73
2022/04/03 08:16:15;;;;;;;6.20;5.20;;;6.80;1.00;;;;;;5073475;28;20813;-73
2022/04/03 08:18:43;;;;;;;5.67;4.87;;;6.80;1.00;;;;;;5074485;28;20210;-72
2022/04/03 08:21:10;;;;;;;5.43;4.40;;;6.90;1.00;;;;;;5060525;28;20202;-73
2022/04/03 08:23:38;;;;;;;5.77;4.73;;;6.90;1.00;;;;;;5073019;28;20218;-73
2022/04/03 08:26:05;;;;;;;6.53;4.30;;;6.80;1.00;;;;;;5073201;28;20739;-73
2022/04/03 08:28:32;;;;;;;6.47;5.27;;;6.70;1.00;;;;;;5073300;28;20202;-72
2022/04/03 08:30:59;;;;;;;5.37;4.10;;;6.80;1.00;;;;;;5072598;28;20205;-72
2022/04/03 08:33:26;;;;;;;4.77;4.20;;;6.80;1.00;;;;;;5071484;28;20210;-73
2022/04/03 08:35:56;;;;;;;5.23;3.67;;;6.90;1.00;;;;;;5073765;28;20275;-73
2022/04/03 08:38:23;;;;;;;7.30;4.43;;;7.00;1.00;;;;;;5071874;28;20297;-75
2022/04/03 08:40:50;;;;;;;7.00;4.40;;;7.10;1.00;;;;;;5070295;28;20202;-72
2022/04/03 08:43:17;;;;;;;5.70;4.60;;;7.00;1.00;;;;;;5073480;28;20822;-72
2022/04/03 08:45:44;;;;;;;7.50;4.43;;;7.10;1.00;;;;;;5073758;28;20210;-71
2022/04/03 08:48:12;;;;;;;5.77;4.00;;;7.30;1.00;;;;;;5072699;28;20260;-72
2022/04/03 08:50:41;;;;;;;4.50;3.73;;;7.40;1.00;;;;;;5073796;28;20237;-71
2022/04/03 08:53:10;;;;;;;3.53;3.23;;;7.70;1.00;;;;;;5073570;28;20700;-71
2022/04/03 08:55:37;;;;;;;4.17;3.77;;;7.70;1.00;;;;;;5074025;28;20198;-73
2022/04/03 08:58:04;;;;;;;4.37;3.97;;;8.10;1.00;;;;;;5074242;28;20210;-72
2022/04/03 09:00:32;;;;;;;6.00;5.03;;;8.40;1.00;;;;;;5073677;28;20252;-74
2022/04/03 09:02:59;;;;;;;4.90;3.77;;;8.30;1.00;;;;;;5073898;28;20238;-73
2022/04/03 09:05:37;;;;;;;6.10;4.40;;;8.00;1.00;;;;;;5073409;28;20230;-72
2022/04/03 09:08:05;;;;;;;5.17;4.20;;;8.10;1.00;;;;;;5073308;28;20293;-73
2022/04/03 09:10:34;;;;;;;5.93;5.33;;;8.40;1.00;;;;;;5073383;28;20210;-73
2022/04/03 09:13:01;;;;;;;4.97;4.47;;;8.90;1.00;;;;;;5066093;28;20674;-72
2022/04/03 09:15:30;;;;;;;5.97;3.97;;;8.90;1.00;;;;;;5073370;28;20214;-72
2022/04/03 09:17:58;;;;;;;6.63;5.20;;;8.70;1.00;;;;;;5073721;28;20210;-72
2022/04/03 09:20:28;;;;;;;4.43;4.03;;;8.40;1.00;;;;;;5073114;28;20198;-71
2022/04/03 09:22:58;;;;;;;4.67;3.83;;;8.30;1.00;;;;;;5073687;28;20206;-72
2022/04/03 09:25:27;;;;;;;3.50;3.20;;;8.80;1.00;;;;;;5071967;28;20234;-73
2022/04/03 09:27:56;;;;;;;5.57;5.03;;;8.90;1.00;;;;;;5073505;28;20213;-73
2022/04/03 09:30:27;;;;;;;5.90;3.40;;;8.00;1.00;;;;;;5073173;28;20214;-72
2022/04/03 09:32:56;;;;;;;4.60;3.57;;;8.20;1.00;;;;;;5073292;28;20206;-72
2022/04/03 09:35:26;;;;;;;4.40;4.00;;;8.30;1.00;;;;;;5072872;28;20213;-73
2022/04/03 09:38:09;;;;;;;4.47;4.07;;;8.30;1.00;;;;;;5073008;28;20587;-73
2022/04/03 09:40:38;;;;;;;5.80;3.87;;;8.70;1.00;;;;;;5073566;28;20201;-73
2022/04/03 09:43:21;;;;;;;8.03;4.80;;;8.60;1.00;;;;;;5073514;28;20198;-73
2022/04/03 09:45:49;;;;;;;7.00;4.93;;;8.20;1.00;;;;;;5073163;28;20202;-72
2022/04/03 09:48:27;;;;;;;5.33;4.80;;;8.30;1.00;;;;;;5072870;28;20267;-72
2022/04/03 09:51:03;;;;;;;4.37;3.97;;;8.40;1.00;;;;;;5072978;28;20198;-71
2022/04/03 09:53:30;;;;;;;4.40;3.90;;;7.90;1.00;;;;;;5072455;28;20710;-72
2022/04/03 09:55:57;;;;;;;5.73;4.87;;;7.80;1.00;;;;;;5072883;28;20281;-72
2022/04/03 09:58:26;;;;;;;4.87;4.40;;;8.00;1.00;;;;;;5072367;28;20210;-72
2022/04/03 10:00:53;;;;;;;8.50;3.90;;;7.90;1.00;;;;;;5072821;28;20263;-72
2022/04/03 10:03:23;;;;;;;5.30;4.80;;;7.80;1.00;;;;;;5072290;28;20755;-72
2022/04/03 10:05:51;;;;;;;5.33;4.40;;;7.60;1.00;;;;;;5072650;28;20287;-72
2022/04/03 10:08:20;;;;;;;5.83;4.73;;;7.40;1.00;;;;;;5071969;28;20206;-71
2022/04/03 10:10:47;;;;;;;3.90;3.60;;;7.40;1.00;;;;;;5072822;28;20202;-73
2022/04/03 10:13:15;;;;;;;4.80;4.30;;;7.50;1.00;;;;;;5072378;28;20211;-73
2022/04/03 10:15:44;;;;;;;5.87;4.50;;;7.50;1.00;;;;;;5069350;28;20218;-73
2022/04/03 10:18:13;;;;;;;5.30;4.40;;;7.50;1.00;;;;;;5072209;28;20249;-72
2022/04/03 10:20:42;;;;;;;5.10;4.40;;;7.00;1.00;;;;;;5072602;28;20203;-73
2022/04/03 10:23:12;;;;;;;7.10;4.53;;;6.80;1.00;;;;;;5071974;28;20206;-73
2022/04/03 10:25:44;;;;;;;4.53;3.90;;;7.00;1.00;;;;;;5072489;28;20323;-71
2022/04/03 10:28:12;;;;;;;6.63;5.13;;;7.20;1.00;;;;;;5071833;28;20295;-75
2022/04/03 10:30:42;;;;;;;5.70;4.60;;;7.30;1.00;;;;;;5072178;28;20206;-70
2022/04/03 10:33:18;;;;;;;6.20;4.93;;;7.40;1.00;;;;;;5072311;28;20206;-71
2022/04/03 10:35:48;;;;;;;5.20;4.43;;;7.90;1.00;;;;;;5072161;28;20216;-72
2022/04/03 10:38:15;;;;;;;5.63;5.13;;;8.30;1.00;;;;;;5070438;28;20297;-71
2022/04/03 10:40:58;;;;;;;7.77;5.30;;;8.10;1.00;;;;;;5071994;28;20722;-72
2022/04/03 10:43:28;;;;;;;4.13;3.73;;;8.00;1.00;;;;;;5071559;28;20217;-73
2022/04/03 10:45:55;;;;;;;5.43;4.17;;;7.50;1.00;;;;;;5071861;28;20338;-72
2022/04/03 10:48:31;;;;;;;6.23;5.10;;;7.00;1.00;;;;;;5071690;28;20210;-72
2022/04/03 10:51:05;;;;;;;4.73;4.27;;;6.80;1.00;;;;;;5071786;28;20202;-72
2022/04/03 10:53:33;;;;;;;5.53;4.27;;;6.70;1.00;;;;;;5071317;28;20203;-71
2022/04/03 10:56:07;;;;;;;4.60;4.07;;;6.60;1.00;;;;;;5072033;28;20259;-74
2022/04/03 10:58:43;;;;;;;8.10;4.47;;;6.40;1.00;;;;;;5071283;28;20210;-72
2022/04/03 11:01:12;;;;;;;5.67;4.33;;;6.30;1.00;;;;;;5071649;28;20302;-71
2022/04/03 11:03:41;;;;;;;5.63;4.27;;;6.00;1.00;;;;;;5071388;28;20202;-72
2022/04/03 11:06:23;;;;;;;6.33;5.13;;;5.90;1.00;;;;;;5071548;28;20287;-72
2022/04/03 11:09:15;;;;;;;10.30;6.10;;;5.90;1.00;;;;;;5071379;28;20205;-74
2022/04/03 11:11:54;;;;;;;7.47;5.40;;;5.90;1.00;;;;;;5071324;28;20255;-76
2022/04/03 11:14:55;;;;;;;6.57;5.00;;;6.10;1.00;;;;;;5070912;28;20678;-74
2022/04/03 11:17:49;;;;;;;6.47;4.30;;;6.10;1.00;;;;;;5071210;28;20198;-74
2022/04/03 11:20:43;;;;;;;6.37;5.77;;;6.00;1.00;;;;;;5070768;28;20272;-74
2022/04/03 11:23:15;;;;;;;8.73;5.93;;;5.90;1.00;;;;;;5071068;28;20218;-73
2022/04/03 11:25:42;;;;;;;5.23;4.67;;;6.10;1.00;;;;;;5071175;28;20313;-74
2022/04/03 11:28:11;;;;;;;7.53;6.20;;;6.30;1.00;;;;;;5071305;28;20228;-73
2022/04/03 11:30:38;;;;;;;8.20;7.07;;;6.70;1.00;;;;;;5070036;28;20202;-75
2022/04/03 11:33:05;;;;;;;7.93;7.23;;;7.10;1.00;;;;;;5071471;28;20275;-75
2022/04/03 11:35:35;;;;;;;21.43;10.47;;;7.30;1.00;;;;;;5069327;28;20198;-73
2022/04/03 11:38:02;;;;;;;23.00;15.27;;;7.40;1.00;;;;;;5069288;28;20678;-74
2022/04/03 11:40:30;;;;;;;9.03;7.53;;;7.70;1.00;;;;;;5070415;28;20240;-74
2022/04/03 11:43:11;;;;;;;6.73;5.77;;;8.00;1.00;;;;;;5067031;28;20289;-72
2022/04/03 11:45:38;;;;;;;5.47;5.00;;;8.30;1.00;;;;;;5062585;28;20241;-71
2022/04/03 11:48:19;;;;;;;5.47;4.93;;;8.30;1.00;;;;;;5071112;28;20626;-73
2022/04/03 11:50:49;;;;;;;5.90;5.23;;;8.00;1.00;;;;;;5070551;28;20206;-72
2022/04/03 11:53:18;;;;;;;5.87;5.27;;;7.80;1.00;;;;;;5070887;28;20272;-72
2022/04/03 11:55:45;;;;;;;12.97;9.40;;;8.00;1.00;;;;;;5070838;28;20206;-72
2022/04/03 11:58:12;;;;;;;8.00;7.20;;;7.90;1.00;;;;;;5070460;28;20278;-71
2022/04/03 12:00:48;;;;;;;8.00;5.30;;;7.70;1.00;;;;;;5070995;28;20209;-72
2022/04/03 12:03:26;;;;;;;7.40;6.70;;;7.70;1.00;;;;;;5070155;28;20206;-73
2022/04/03 12:06:10;;;;;;;5.53;4.80;;;8.20;1.00;;;;;;5069644;28;20269;-75
2022/04/03 12:08:38;;;;;;;5.47;5.07;;;8.20;1.00;;;;;;5069956;28;20206;-74
2022/04/03 12:11:19;;;;;;;6.47;5.47;;;8.10;1.00;;;;;;5070867;28;20202;-74
2022/04/03 12:13:46;;;;;;;7.07;5.97;;;8.10;1.00;;;;;;5070750;28;20202;-74
2022/04/03 12:16:17;;;;;;;5.90;5.13;;;8.10;1.00;;;;;;5070399;28;20214;-75
2022/04/03 12:18:49;;;;;;;5.90;5.30;;;8.20;1.00;;;;;;5070051;28;20202;-76
2022/04/03 12:21:17;;;;;;;4.60;4.20;;;8.00;1.00;;;;;;5069918;28;20584;-76
2022/04/03 12:24:03;;;;;;;6.00;5.40;;;8.30;1.00;;;;;;5070638;28;20210;-74
2022/04/03 12:26:30;;;;;;;5.20;4.70;;;8.40;1.00;;;;;;5069984;28;20365;-73
2022/04/03 12:28:58;;;;;;;6.57;5.70;;;8.70;1.00;;;;;;5070500;28;20198;-74
2022/04/03 12:31:28;;;;;;;7.80;4.87;;;8.30;1.00;;;;;;5070301;28;20248;-75
2022/04/03 12:34:14;;;;;;;5.90;5.30;;;8.40;1.00;;;;;;5070267;28;20661;-74
2022/04/03 12:36:45;;;;;;;4.73;4.33;;;8.00;1.00;;;;;;5070484;28;20563;-74
2022/04/03 12:39:35;;;;;;;5.90;4.33;;;7.70;1.00;;;;;;5069792;28;20199;-74
2022/04/03 12:42:20;;;;;;;9.17;5.27;;;7.50;1.00;;;;;;5070480;28;20208;-76
2022/04/03 12:45:06;;;;;;;6.63;5.47;;;7.50;1.00;;;;;;5070373;28;20313;-76
2022/04/03 12:47:38;;;;;;;5.40;4.83;;;7.30;1.00;;;;;;5069741;28;20543;-75
2022/04/03 12:50:38;;;;;;;8.50;5.93;;;7.40;1.00;;;;;;5070786;28;20258;-74
2022/04/03 12:53:12;;;;;;;15.17;11.77;;;7.50;1.00;;;;;;5059115;28;20209;-74
2022/04/03 12:55:42;;;;;;;15.70;13.27;;;7.70;1.00;;;;;;5070072;28;20201;-75
2022/04/03 12:58:32;;;;;;;7.67;6.83;;;8.00;1.00;;;;;;5070164;28;20237;-73
2022/04/03 13:01:09;;;;;;;6.03;5.43;;;8.10;1.00;;;;;;5071019;28;20210;-72
2022/04/03 13:03:42;;;;;;;6.67;5.70;;;8.60;1.00;;;;;;5074057;28;20217;-74
2022/04/03 13:06:11;;;;;;;5.87;5.33;;;8.70;1.00;;;;;;5073816;28;20241;-73
2022/04/03 13:08:52;;;;;;;5.67;5.17;;;8.60;1.00;;;;;;5074066;28;20670;-73
2022/04/03 13:11:29;;;;;;;7.37;5.03;;;7.90;1.00;;;;;;5073405;28;20225;-74
2022/04/03 13:13:56;;;;;;;6.27;5.57;;;7.80;1.00;;;;;;5073636;28;20259;-74
2022/04/03 13:16:23;;;;;;;6.00;5.40;;;7.80;1.00;;;;;;5073179;28;20256;-73
2022/04/03 13:18:50;;;;;;;6.23;5.37;;;7.80;1.00;;;;;;5073776;28;20202;-73